Time;durP1;ratioP1;P1;durP2;ratioP2;P2;SDS_P1;SDS_P2;PMS_P1;PMS_P2;Temp;Humidity;BMP_temperature;BMP_pressure;BME280_temperature;BME280_humidity;BME280_pressure;Samples;Min_cycle;Max_cycle;Signal;HPM_P1;HPM_P2
2022/06/09 00:01:41;;;;;;;;;;;17.20;60.60;;;;;;5114540;28;19955;-59
2022/06/09 00:04:12;;;;;;;;;;;17.10;61.20;;;;;;5115735;28;19960;-55
2022/06/09 00:06:41;;;;;;;;;;;17.00;61.80;;;;;;5115382;28;20006;-52
2022/06/09 00:09:08;;;;;;;;;;;17.20;60.60;;;;;;5115831;28;19923;-54
2022/06/09 00:11:37;;;;;;;;;;;17.20;61.10;;;;;;5116296;27;19912;-48
2022/06/09 00:14:05;;;;;;;;;;;17.30;61.30;;;;;;5114953;28;19907;-54
2022/06/09 00:16:31;;;;;;;;;;;17.30;61.00;;;;;;5115174;28;19947;-47
2022/06/09 00:18:58;;;;;;;;;;;17.50;59.30;;;;;;5115604;28;20063;-58
2022/06/09 00:21:25;;;;;;;;;;;17.60;60.60;;;;;;5115151;28;20338;-55
2022/06/09 00:23:52;;;;;;;;;;;17.80;60.40;;;;;;5115503;28;19908;-55
2022/06/09 00:26:18;;;;;;;;;;;17.90;59.20;;;;;;5115475;28;20362;-57
2022/06/09 00:28:45;;;;;;;;;;;17.90;60.40;;;;;;5115587;28;19911;-53
2022/06/09 00:31:12;;;;;;;;;;;18.00;60.10;;;;;;5115849;28;19915;-58
2022/06/09 00:33:39;;;;;;;;;;;18.10;58.30;;;;;;5115411;28;19983;-54
2022/06/09 00:36:05;;;;;;;;;;;18.20;59.10;;;;;;5115098;28;19915;-55
2022/06/09 00:38:32;;;;;;;;;;;18.20;59.30;;;;;;5113720;28;19907;-56
2022/06/09 00:41:00;;;;;;;;;;;18.40;58.70;;;;;;5115323;28;20346;-53
2022/06/09 00:43:27;;;;;;;;;;;18.40;57.90;;;;;;5115617;28;19937;-51
2022/06/09 00:45:56;;;;;;;;;;;18.60;58.70;;;;;;5114944;28;20227;-47
2022/06/09 00:48:37;;;;;;;;;;;18.70;58.00;;;;;;5115698;28;19958;-50
2022/06/09 00:51:16;;;;;;;;;;;18.90;57.30;;;;;;5115503;28;20246;-56
2022/06/09 00:53:43;;;;;;;;;;;18.90;56.80;;;;;;5115651;28;19994;-53
2022/06/09 00:56:12;;;;;;;;;;;19.10;56.90;;;;;;5115527;28;20011;-44
2022/06/09 00:58:40;;;;;;;;;;;19.00;57.20;;;;;;5114822;28;19908;-47
2022/06/09 01:01:09;;;;;;;;;;;19.10;56.60;;;;;;5114925;28;20011;-51
2022/06/09 01:03:41;;;;;;;;;;;19.20;56.80;;;;;;5099666;28;19912;-44
2022/06/09 01:06:13;;;;;;;;;;;19.10;56.90;;;;;;5090844;28;19935;-45
2022/06/09 01:08:44;;;;;;;;;;;19.20;56.80;;;;;;5088212;28;19924;-54
2022/06/09 01:11:10;;;;;;;;;;;19.30;56.80;;;;;;5087250;28;19920;-58
2022/06/09 01:13:37;;;;;;;;;;;19.50;56.10;;;;;;5086477;28;19915;-56
2022/06/09 01:16:11;;;;;;;;;;;19.40;56.70;;;;;;5087206;28;21533;-61
2022/06/09 01:18:46;;;;;;;;;;;19.60;55.70;;;;;;5085779;28;20354;-60
2022/06/09 01:21:15;;;;;;;;;;;19.60;55.50;;;;;;5086108;28;19923;-59
2022/06/09 01:24:10;;;;;;;;;;;19.60;56.30;;;;;;5086638;28;20446;-53
2022/06/09 01:26:43;;;;;;;;;;;19.70;55.90;;;;;;5088388;28;20015;-59
2022/06/09 01:29:18;;;;;;;;;;;19.70;55.80;;;;;;5085738;28;19920;-57
2022/06/09 01:32:03;;;;;;;;;;;19.60;55.70;;;;;;5078230;28;19917;-49
2022/06/09 01:34:32;;;;;;;;;;;19.70;55.00;;;;;;5086439;28;19953;-55
2022/06/09 01:37:06;;;;;;;;;;;19.60;54.80;;;;;;5087362;28;20389;-51
2022/06/09 01:39:44;;;;;;;;;;;19.70;54.20;;;;;;5087917;28;19912;-50
2022/06/09 01:42:19;;;;;;;;;;;19.80;54.30;;;;;;5081733;28;19920;-57
2022/06/09 01:44:46;;;;;;;;;;;20.00;54.90;;;;;;5085951;28;19997;-40
2022/06/09 01:47:14;;;;;;;;;;;19.90;54.00;;;;;;5087499;28;20011;-45
2022/06/09 01:49:42;;;;;;;;;;;19.90;55.90;;;;;;5085732;28;19908;-42
2022/06/09 01:52:09;;;;;;;;;;;19.90;55.00;;;;;;5081197;28;20326;-45
2022/06/09 01:54:37;;;;;;;;;;;20.00;55.50;;;;;;5082451;28;20008;-47
2022/06/09 01:57:09;;;;;;;;;;;20.00;53.70;;;;;;5084067;28;19942;-51
2022/06/09 01:59:36;;;;;;;;;;;20.10;55.20;;;;;;5084029;28;19956;-52
2022/06/09 02:02:18;;;;;;;;;;;20.20;54.10;;;;;;5076401;28;20275;-45
2022/06/09 02:04:50;;;;;;;;;;;20.10;55.30;;;;;;5082126;28;19951;-52
2022/06/09 02:07:17;;;;;;;;;;;20.20;55.30;;;;;;5083868;28;19916;-53
2022/06/09 02:09:44;;;;;;;;;;;20.30;54.70;;;;;;5090788;28;19969;-45
2022/06/09 02:12:13;;;;;;;;;;;20.40;54.50;;;;;;5088166;28;20334;-50
2022/06/09 02:14:42;;;;;;;;;;;20.60;54.70;;;;;;5089301;28;19932;-41
2022/06/09 02:17:09;;;;;;;;;;;20.40;54.70;;;;;;5090641;28;19908;-51
2022/06/09 02:19:37;;;;;;;;;;;20.50;54.10;;;;;;5090773;28;19926;-52
2022/06/09 02:22:05;;;;;;;;;;;20.60;53.20;;;;;;5087670;28;19931;-59
2022/06/09 02:24:32;;;;;;;;;;;20.70;54.90;;;;;;5090249;28;19990;-43
2022/06/09 02:26:59;;;;;;;;;;;20.70;53.30;;;;;;5090246;28;20006;-50
2022/06/09 02:29:26;;;;;;;;;;;20.90;52.80;;;;;;5090161;28;19961;-43
2022/06/09 02:31:53;;;;;;;;;;;21.00;53.30;;;;;;5087463;28;19908;-57
2022/06/09 02:34:20;;;;;;;;;;;21.00;54.30;;;;;;5090500;28;19908;-50
2022/06/09 02:36:47;;;;;;;;;;;21.10;53.60;;;;;;5087922;28;20042;-59
2022/06/09 02:39:14;;;;;;;;;;;21.20;54.20;;;;;;5089275;28;19908;-58
2022/06/09 02:41:41;;;;;;;;;;;21.20;54.10;;;;;;5087571;28;20376;-58
2022/06/09 02:44:07;;;;;;;;;;;21.30;53.20;;;;;;5090054;28;20469;-50
2022/06/09 02:46:34;;;;;;;;;;;21.40;52.40;;;;;;5089442;28;19920;-55
2022/06/09 02:49:01;;;;;;;;;;;21.20;53.90;;;;;;5089700;28;19916;-54
2022/06/09 02:51:27;;;;;;;;;;;21.30;52.90;;;;;;5087715;28;19917;-61
2022/06/09 02:53:55;;;;;;;;;;;21.30;52.60;;;;;;5089813;28;20002;-58
2022/06/09 02:56:23;;;;;;;;;;;21.30;53.50;;;;;;5089585;28;19939;-58
2022/06/09 02:58:50;;;;;;;;;;;21.30;52.80;;;;;;5087267;28;19923;-48
2022/06/09 03:01:16;;;;;;;;;;;21.50;54.00;;;;;;5087442;28;19942;-47
2022/06/09 03:03:43;;;;;;;;;;;21.50;52.10;;;;;;5089403;28;19919;-54
2022/06/09 03:06:10;;;;;;;;;;;21.50;53.10;;;;;;5090198;28;20294;-57
2022/06/09 03:08:36;;;;;;;;;;;21.50;52.70;;;;;;5076818;28;19925;-56
2022/06/09 03:11:03;;;;;;;;;;;21.70;52.60;;;;;;5067330;28;19909;-60
2022/06/09 03:13:30;;;;;;;;;;;21.50;53.20;;;;;;5070018;28;19915;-59
2022/06/09 03:15:57;;;;;;;;;;;21.40;54.00;;;;;;5071816;28;19915;-53
2022/06/09 03:18:23;;;;;;;;;;;21.30;54.20;;;;;;5072432;28;20351;-48
2022/06/09 03:20:50;;;;;;;;;;;21.40;54.00;;;;;;5071887;28;19913;-55
2022/06/09 03:23:17;;;;;;;;;;;21.50;53.40;;;;;;5071616;28;19913;-55
2022/06/09 03:25:44;;;;;;;;;;;21.50;53.20;;;;;;5072011;28;20286;-52
2022/06/09 03:28:11;;;;;;;;;;;21.50;54.60;;;;;;5071842;28;19908;-60
2022/06/09 03:30:38;;;;;;;;;;;21.50;52.30;;;;;;5071565;28;19915;-60
2022/06/09 03:33:05;;;;;;;;;;;21.50;53.60;;;;;;5071721;28;19917;-58
2022/06/09 03:35:32;;;;;;;;;;;21.50;54.80;;;;;;5071748;28;19909;-57
2022/06/09 03:37:59;;;;;;;;;;;21.60;52.40;;;;;;5071301;28;19909;-46
2022/06/09 03:40:28;;;;;;;;;;;21.60;52.40;;;;;;5070794;28;19916;-57
2022/06/09 03:42:55;;;;;;;;;;;21.60;52.90;;;;;;5072129;28;19912;-54
2022/06/09 03:45:22;;;;;;;;;;;21.60;53.90;;;;;;5072337;28;19908;-53
2022/06/09 03:47:49;;;;;;;;;;;21.60;53.70;;;;;;5071495;28;19908;-56
2022/06/09 03:50:17;;;;;;;;;;;21.60;54.00;;;;;;5071645;28;19908;-59
2022/06/09 03:52:44;;;;;;;;;;;21.60;53.40;;;;;;5071506;28;19913;-63
2022/06/09 03:55:11;;;;;;;;;;;21.80;53.40;;;;;;5072671;28;19916;-56
2022/06/09 03:57:37;;;;;;;;;;;21.90;52.50;;;;;;5075243;28;19932;-56
2022/06/09 04:00:06;;;;;;;;;;;21.90;52.90;;;;;;5075136;28;19951;-57
2022/06/09 04:02:33;;;;;;;;;;;21.80;52.40;;;;;;5075407;28;19939;-60
2022/06/09 04:05:01;;;;;;;;;;;21.70;54.00;;;;;;5075271;28;19908;-50
2022/06/09 04:07:28;;;;;;;;;;;21.70;54.50;;;;;;5078254;28;19912;-59
2022/06/09 04:09:55;;;;;;;;;;;21.70;53.60;;;;;;5095414;28;20005;-52
2022/06/09 04:12:22;;;;;;;;;;;21.60;54.50;;;;;;5094976;28;19997;-61
2022/06/09 04:14:52;;;;;;;;;;;21.70;53.50;;;;;;5095368;28;20125;-58
2022/06/09 04:17:19;;;;;;;;;;;21.70;53.00;;;;;;5076707;28;19954;-63
2022/06/09 04:19:45;;;;;;;;;;;21.80;53.60;;;;;;5095284;28;19912;-61
2022/06/09 04:22:12;;;;;;;;;;;21.80;53.70;;;;;;5095331;28;20248;-60
2022/06/09 04:24:39;;;;;;;;;;;21.80;54.30;;;;;;5095007;28;19943;-63
2022/06/09 04:27:06;;;;;;;;;;;21.80;53.70;;;;;;5095619;28;19920;-60
2022/06/09 04:29:32;;;;;;;;;;;21.80;52.10;;;;;;5095817;28;20274;-60
2022/06/09 04:31:59;;;;;;;;;;;21.80;54.70;;;;;;5095354;28;19954;-64
2022/06/09 04:34:26;;;;;;;;;;;21.80;52.50;;;;;;5095092;28;20327;-60
2022/06/09 04:36:53;;;;;;;;;;;21.80;52.50;;;;;;5095074;28;20300;-59
2022/06/09 04:39:19;;;;;;;;;;;21.80;53.60;;;;;;5094803;28;19908;-62
2022/06/09 04:41:46;;;;;;;;;;;21.90;54.00;;;;;;5094377;28;20355;-60
2022/06/09 04:44:13;;;;;;;;;;;21.80;54.60;;;;;;5094761;28;19908;-58
2022/06/09 04:46:40;;;;;;;;;;;21.80;54.90;;;;;;5094579;28;19931;-55
2022/06/09 04:49:06;;;;;;;;;;;21.80;54.30;;;;;;5094686;28;19915;-56
2022/06/09 04:51:33;;;;;;;;;;;21.80;54.80;;;;;;5094180;28;19909;-58
2022/06/09 04:54:00;;;;;;;;;;;21.80;55.50;;;;;;5094384;28;20370;-57
2022/06/09 04:56:27;;;;;;;;;;;21.80;52.60;;;;;;5094458;28;19919;-59
2022/06/09 04:58:54;;;;;;;;;;;21.80;54.20;;;;;;5094511;28;19939;-58
2022/06/09 05:01:25;;;;;;;;;;;21.80;54.90;;;;;;5076363;28;19919;-60
2022/06/09 05:03:52;;;;;;;;;;;21.70;52.30;;;;;;5094739;28;19912;-60
2022/06/09 05:06:20;;;;;;;;;;;21.60;54.20;;;;;;5093726;28;19908;-52
2022/06/09 05:08:48;;;;;;;;;;;21.70;53.80;;;;;;5093589;28;20268;-58
2022/06/09 05:11:15;;;;;;;;;;;21.70;54.60;;;;;;5093902;28;19927;-58
2022/06/09 05:13:41;;;;;;;;;;;21.50;52.40;;;;;;5094040;28;19912;-63
2022/06/09 05:16:08;;;;;;;;;;;21.40;53.20;;;;;;5094384;28;19916;-53
2022/06/09 05:18:35;;;;;;;;;;;21.20;54.50;;;;;;5094434;28;19912;-61
2022/06/09 05:21:02;;;;;;;;;;;21.00;54.80;;;;;;5094159;28;19923;-53
2022/06/09 05:23:29;;;;;;;;;;;20.80;55.10;;;;;;5094718;28;19908;-60
2022/06/09 05:25:57;;;;;;;;;;;20.60;54.00;;;;;;5094985;28;19916;-56
2022/06/09 05:28:24;;;;;;;;;;;20.40;55.80;;;;;;5094744;28;20294;-60
2022/06/09 05:30:51;;;;;;;;;;;20.40;55.20;;;;;;5094139;28;19915;-62
2022/06/09 05:33:18;;;;;;;;;;;20.30;56.30;;;;;;5093941;28;19909;-61
2022/06/09 05:35:45;;;;;;;;;;;20.20;56.70;;;;;;5093598;28;20042;-59
2022/06/09 05:46:28;;;;;;;;;;;19.60;56.20;;;;;;5094506;28;19997;-47
2022/06/09 05:48:55;;;;;;;;;;;19.40;57.10;;;;;;5094314;28;19912;-49
2022/06/09 05:51:21;;;;;;;;;;;19.30;57.70;;;;;;5093590;28;19908;-47
2022/06/09 05:53:48;;;;;;;;;;;19.00;58.50;;;;;;5094041;28;19936;-53
2022/06/09 05:56:16;;;;;;;;;;;18.80;60.20;;;;;;5093060;28;19973;-46
2022/06/09 05:58:43;;;;;;;;;;;18.60;61.10;;;;;;5093254;28;19912;-53
2022/06/09 06:01:11;;;;;;;;;;;18.50;59.90;;;;;;5093791;28;19916;-54
2022/06/09 06:03:39;;;;;;;;;;;18.40;60.00;;;;;;5093287;28;19908;-60
2022/06/09 06:08:51;;;;;;;;;;;18.00;60.50;;;;;;5093370;28;19993;-62
2022/06/09 06:11:18;;;;;;;;;;;17.90;62.20;;;;;;5093413;28;19912;-61
2022/06/09 06:13:45;;;;;;;;;;;17.80;62.60;;;;;;5064495;28;19916;-58
2022/06/09 06:16:12;;;;;;;;;;;17.70;62.70;;;;;;5073136;28;20033;-59
2022/06/09 06:18:39;;;;;;;;;;;17.60;62.60;;;;;;5071549;28;19954;-61
2022/06/09 06:21:06;;;;;;;;;;;17.50;63.80;;;;;;5071906;28;20355;-56
2022/06/09 06:23:33;;;;;;;;;;;17.40;63.70;;;;;;5072327;28;19915;-63
2022/06/09 06:25:59;;;;;;;;;;;17.30;64.20;;;;;;5073069;28;19994;-58
2022/06/09 06:28:27;;;;;;;;;;;17.30;64.20;;;;;;5072396;28;19971;-61
2022/06/09 06:30:54;;;;;;;;;;;17.20;64.00;;;;;;5072487;28;19913;-60
2022/06/09 06:33:22;;;;;;;;;;;17.10;64.70;;;;;;5072641;28;19908;-62
2022/06/09 06:35:50;;;;;;;;;;;17.00;64.70;;;;;;5072677;28;20337;-59
2022/06/09 06:38:16;;;;;;;;;;;17.00;65.90;;;;;;5072424;28;20078;-65
2022/06/09 06:40:43;;;;;;;;;;;16.90;65.60;;;;;;5071629;28;19970;-61
2022/06/09 06:43:10;;;;;;;;;;;16.90;66.30;;;;;;5072712;28;19912;-55
2022/06/09 06:45:37;;;;;;;;;;;16.80;66.40;;;;;;5072548;28;19908;-60
2022/06/09 06:48:04;;;;;;;;;;;16.80;66.50;;;;;;5072467;28;19908;-53
2022/06/09 06:50:30;;;;;;;;;;;16.70;66.30;;;;;;5072044;28;19908;-61
2022/06/09 06:52:57;;;;;;;;;;;16.70;66.20;;;;;;5072661;28;19974;-66
2022/06/09 06:55:24;;;;;;;;;;;16.70;66.70;;;;;;5072579;28;19962;-59
2022/06/09 06:57:51;;;;;;;;;;;16.60;67.20;;;;;;5072188;28;20389;-46
2022/06/09 07:00:19;;;;;;;;;;;16.60;67.30;;;;;;5054667;28;19908;-54
2022/06/09 07:02:47;;;;;;;;;;;16.60;67.20;;;;;;5072105;28;19999;-51
2022/06/09 07:05:13;;;;;;;;;;;16.50;67.50;;;;;;5071619;28;19909;-53
2022/06/09 07:07:41;;;;;;;;;;;16.50;67.30;;;;;;5077387;28;19912;-51
2022/06/09 07:10:09;;;;;;;;;;;16.50;67.00;;;;;;5091272;28;20023;-55
2022/06/09 07:12:36;;;;;;;;;;;16.40;67.60;;;;;;5091882;28;19915;-55
2022/06/09 07:15:03;;;;;;;;;;;16.40;67.50;;;;;;5092249;28;19965;-57
2022/06/09 07:17:30;;;;;;;;;;;16.40;67.60;;;;;;5092042;28;19908;-56
2022/06/09 07:19:57;;;;;;;;;;;16.30;66.60;;;;;;5091812;28;19920;-58
2022/06/09 07:22:23;;;;;;;;;;;16.30;67.70;;;;;;5091639;28;19966;-55
2022/06/09 07:24:50;;;;;;;;;;;16.30;67.70;;;;;;5092015;28;19910;-54
2022/06/09 07:27:17;;;;;;;;;;;16.20;67.50;;;;;;5092282;28;19909;-57
2022/06/09 07:29:44;;;;;;;;;;;16.20;67.70;;;;;;5092642;28;19985;-53
2022/06/09 07:32:10;;;;;;;;;;;16.20;67.40;;;;;;5096126;28;19914;-54
2022/06/09 07:34:37;;;;;;;;;;;16.10;68.00;;;;;;5095190;28;19908;-60
2022/06/09 07:37:05;;;;;;;;;;;16.10;67.90;;;;;;5096553;28;19999;-58
2022/06/09 07:39:31;;;;;;;;;;;16.10;67.80;;;;;;5096540;28;19927;-61
2022/06/09 07:41:58;;;;;;;;;;;16.10;68.20;;;;;;5095940;28;19916;-61
2022/06/09 07:44:29;;;;;;;;;;;16.10;68.40;;;;;;5094539;28;20006;-49
2022/06/09 07:46:56;;;;;;;;;;;16.00;68.30;;;;;;5094455;28;19969;-62
2022/06/09 07:49:23;;;;;;;;;;;16.00;68.20;;;;;;5094681;28;20363;-45
2022/06/09 07:51:50;;;;;;;;;;;16.00;68.40;;;;;;5093828;28;19912;-57
2022/06/09 07:54:17;;;;;;;;;;;16.00;68.60;;;;;;5092044;28;19920;-57
2022/06/09 07:56:44;;;;;;;;;;;16.00;68.80;;;;;;5092997;28;19947;-63
2022/06/09 07:59:11;;;;;;;;;;;16.00;68.50;;;;;;5093001;28;19930;-50
2022/06/09 08:01:38;;;;;;;;;;;15.90;67.90;;;;;;5092570;28;19928;-61
2022/06/09 08:04:04;;;;;;;;;;;15.90;68.90;;;;;;5092599;28;20366;-63
2022/06/09 08:06:31;;;;;;;;;;;15.90;67.60;;;;;;5090709;28;19915;-51
2022/06/09 08:08:59;;;;;;;;;;;15.90;68.40;;;;;;5093310;28;19959;-61
2022/06/09 08:11:28;;;;;;;;;;;15.90;69.20;;;;;;5085540;28;19957;-63
2022/06/09 08:13:56;;;;;;;;;;;15.90;69.50;;;;;;5091478;28;19912;-61
2022/06/09 08:16:23;;;;;;;;;;;15.90;69.90;;;;;;5084375;28;19999;-46
2022/06/09 08:18:50;;;;;;;;;;;15.90;70.70;;;;;;5066816;28;19988;-55
2022/06/09 08:21:17;;;;;;;;;;;15.90;71.20;;;;;;5086331;28;19921;-55
2022/06/09 08:23:44;;;;;;;;;;;15.90;71.80;;;;;;5071961;28;19912;-60
2022/06/09 08:26:10;;;;;;;;;;;15.90;72.10;;;;;;5064696;28;20298;-62
2022/06/09 08:28:37;;;;;;;;;;;15.90;72.30;;;;;;5088067;28;19908;-47
2022/06/09 08:31:04;;;;;;;;;;;15.90;72.50;;;;;;5069612;28;19908;-62
2022/06/09 08:33:31;;;;;;;;;;;15.90;72.90;;;;;;5087996;28;19915;-56
2022/06/09 08:35:58;;;;;;;;;;;15.90;73.50;;;;;;5081860;28;20046;-61
2022/06/09 08:38:25;;;;;;;;;;;15.90;73.40;;;;;;5065831;28;20366;-57
2022/06/09 08:41:05;;;;;;;;;;;15.90;73.90;;;;;;5086807;28;19967;-57
2022/06/09 08:43:34;;;;;;;;;;;15.90;73.90;;;;;;5068179;28;20262;-46
2022/06/09 08:46:23;;;;;;;;;;;15.90;73.70;;;;;;5080849;28;19912;-52
2022/06/09 08:48:50;;;;;;;;;;;15.80;74.10;;;;;;5088671;28;19933;-54
2022/06/09 08:51:37;;;;;;;;;;;15.80;74.40;;;;;;5079176;28;19912;-57
2022/06/09 08:54:12;;;;;;;;;;;15.90;74.20;;;;;;5087797;28;19908;-47
2022/06/09 08:56:39;;;;;;;;;;;15.90;73.90;;;;;;5077947;28;19923;-50
2022/06/09 08:59:15;;;;;;;;;;;15.90;73.80;;;;;;5081146;28;20001;-62
2022/06/09 09:01:41;;;;;;;;;;;15.90;73.90;;;;;;5085277;28;20438;-48
2022/06/09 09:04:08;;;;;;;;;;;15.90;73.70;;;;;;5089686;28;20651;-65
2022/06/09 09:06:38;;;;;;;;;;;16.00;75.30;;;;;;5078877;28;20305;-57
2022/06/09 09:09:22;;;;;;;;;;;15.90;75.40;;;;;;5088579;28;20023;-55
2022/06/09 09:12:08;;;;;;;;;;;16.00;76.30;;;;;;5092036;28;20053;-50
2022/06/09 09:14:37;;;;;;;;;;;16.00;77.20;;;;;;5090904;28;19935;-48
2022/06/09 09:17:20;;;;;;;;;;;16.10;78.40;;;;;;5089456;28;20370;-55
2022/06/09 09:19:53;;;;;;;;;;;16.10;79.50;;;;;;5091980;28;20350;-54
2022/06/09 09:22:23;;;;;;;;;;;16.20;80.20;;;;;;5091151;28;19938;-46
2022/06/09 09:25:07;;;;;;;;;;;16.20;81.60;;;;;;5091242;28;19908;-50
2022/06/09 09:27:39;;;;;;;;;;;16.30;83.30;;;;;;5089970;28;19915;-57
2022/06/09 09:30:17;;;;;;;;;;;16.30;83.40;;;;;;5091661;28;19919;-51
2022/06/09 09:32:48;;;;;;;;;;;16.30;83.50;;;;;;5091724;28;19917;-52
2022/06/09 09:35:30;;;;;;;;;;;16.20;83.90;;;;;;5088955;28;19939;-51
2022/06/09 09:37:57;;;;;;;;;;;16.30;85.70;;;;;;5088539;28;19912;-48
2022/06/09 09:40:28;;;;;;;;;;;16.30;86.90;;;;;;5091030;28;19908;-43
2022/06/09 09:42:57;;;;;;;;;;;16.30;86.50;;;;;;5091706;28;20433;-52
2022/06/09 09:45:35;;;;;;;;;;;16.30;89.00;;;;;;5090030;28;20007;-51
2022/06/09 09:48:03;;;;;;;;;;;16.30;89.90;;;;;;5090764;28;20014;-55
2022/06/09 09:50:34;;;;;;;;;;;16.30;90.10;;;;;;5090732;28;19958;-49
2022/06/09 09:53:22;;;;;;;;;;;16.40;90.40;;;;;;5091003;28;19915;-49
2022/06/09 09:55:51;;;;;;;;;;;16.30;90.40;;;;;;5089348;28;19923;-45
2022/06/09 09:58:20;;;;;;;;;;;16.30;90.40;;;;;;5093400;28;19912;-52
2022/06/09 10:00:50;;;;;;;;;;;16.30;90.40;;;;;;5093480;28;19908;-49
2022/06/09 10:08:53;;;;;;;;;;;16.30;90.70;;;;;;5093117;28;19926;-48
2022/06/09 10:14:36;;;;;;;;;;;16.40;90.60;;;;;;5093212;28;19918;-54
2022/06/09 10:17:05;;;;;;;;;;;16.40;91.30;;;;;;5092174;28;20434;-50
2022/06/09 10:19:33;;;;;;;;;;;16.40;90.60;;;;;;5093270;28;19908;-58
2022/06/09 10:22:01;;;;;;;;;;;16.40;90.50;;;;;;5093299;28;19927;-51
2022/06/09 10:24:32;;;;;;;;;;;16.30;89.70;;;;;;5091185;28;19947;-57
2022/06/09 10:26:59;;;;;;;;;;;16.30;90.40;;;;;;5092962;28;20354;-58
2022/06/09 10:29:28;;;;;;;;;;;16.20;90.10;;;;;;5091945;28;20003;-54
2022/06/09 10:31:55;;;;;;;;;;;16.20;89.00;;;;;;5092802;28;19912;-53
2022/06/09 10:34:34;;;;;;;;;;;16.10;88.90;;;;;;5091856;28;19915;-58
2022/06/09 10:37:01;;;;;;;;;;;16.00;89.00;;;;;;5093129;28;19922;-56
2022/06/09 10:39:43;;;;;;;;;;;16.00;89.00;;;;;;5093189;28;19908;-58
2022/06/09 10:42:28;;;;;;;;;;;15.90;89.10;;;;;;5093219;28;20011;-52
2022/06/09 10:45:13;;;;;;;;;;;15.90;88.90;;;;;;5093256;28;19912;-53
2022/06/09 10:56:47;;;;;;;;;;;15.70;88.20;;;;;;5093091;28;20045;-53
2022/06/09 10:59:20;;;;;;;;;;;15.60;87.90;;;;;;5093158;28;19974;-47
2022/06/09 11:01:47;;;;;;;;;;;15.60;88.20;;;;;;5092716;28;19962;-49
2022/06/09 11:04:15;;;;;;;;;;;15.60;87.80;;;;;;5093068;28;20018;-56
2022/06/09 11:06:52;;;;;;;;;;;15.60;87.70;;;;;;5096415;28;19914;-48
2022/06/09 11:09:20;;;;;;;;;;;15.50;87.50;;;;;;5096839;28;19927;-58
2022/06/09 11:11:49;;;;;;;;;;;15.50;87.40;;;;;;5096910;28;19908;-56
2022/06/09 11:14:34;;;;;;;;;;;15.50;87.60;;;;;;5096936;28;19973;-60
2022/06/09 11:17:10;;;;;;;;;;;15.40;87.30;;;;;;5097180;28;20007;-50
2022/06/09 11:19:45;;;;;;;;;;;15.30;85.80;;;;;;5097014;28;19915;-55
2022/06/09 11:22:14;;;;;;;;;;;15.30;85.30;;;;;;5095863;28;19916;-53
2022/06/09 11:24:50;;;;;;;;;;;15.30;85.40;;;;;;5096918;28;19916;-58
2022/06/09 11:27:25;;;;;;;;;;;15.30;85.20;;;;;;5095854;28;19908;-59
2022/06/09 11:29:56;;;;;;;;;;;15.30;85.20;;;;;;5096459;28;19970;-60
2022/06/09 11:32:33;;;;;;;;;;;15.30;85.00;;;;;;5096882;28;19916;-55
2022/06/09 11:35:03;;;;;;;;;;;15.20;84.70;;;;;;5096986;28;19985;-57
2022/06/09 11:37:42;;;;;;;;;;;15.20;84.80;;;;;;5096622;28;19909;-56
2022/06/09 11:40:27;;;;;;;;;;;15.20;84.80;;;;;;5096868;28;19908;-55
2022/06/09 11:43:02;;;;;;;;;;;15.20;84.50;;;;;;5096740;28;20398;-58
2022/06/09 11:45:31;;;;;;;;;;;15.20;84.60;;;;;;5096704;28;19931;-53
2022/06/09 11:48:00;;;;;;;;;;;15.10;84.30;;;;;;5096532;28;19908;-47
2022/06/09 11:50:35;;;;;;;;;;;15.10;84.40;;;;;;5096633;28;20397;-55
2022/06/09 11:53:03;;;;;;;;;;;15.10;84.30;;;;;;5096670;28;19922;-59
2022/06/09 11:56:15;;;;;;;;;;;15.00;84.20;;;;;;5096736;28;19993;-53
2022/06/09 11:58:35;;;;;;;;;;;15.00;83.90;;;;;;5092573;28;20270;-54
2022/06/09 12:01:08;;;;;;;;;;;15.00;84.10;;;;;;5096436;28;19919;-50
2022/06/09 12:04:03;;;;;;;;;;;15.00;83.90;;;;;;5096386;28;19915;-48
2022/06/09 12:06:45;;;;;;;;;;;15.00;84.10;;;;;;5087142;28;20042;-56
2022/06/09 12:09:12;;;;;;;;;;;14.90;83.70;;;;;;5096338;28;19947;-56
2022/06/09 12:11:53;;;;;;;;;;;14.90;83.70;;;;;;5096479;28;19915;-57
2022/06/09 12:14:37;;;;;;;;;;;14.90;83.60;;;;;;5095722;28;19912;-58
2022/06/09 12:17:08;;;;;;;;;;;14.90;83.50;;;;;;5095331;28;19943;-47
2022/06/09 12:19:37;;;;;;;;;;;14.80;83.50;;;;;;5095705;28;19999;-53
2022/06/09 12:22:21;;;;;;;;;;;14.80;83.30;;;;;;5094809;28;20354;-60
2022/06/09 12:25:04;;;;;;;;;;;14.80;83.10;;;;;;5095322;28;19915;-47
2022/06/09 12:27:42;;;;;;;;;;;14.80;83.10;;;;;;5096068;28;19914;-48
2022/06/09 12:30:26;;;;;;;;;;;14.80;83.10;;;;;;5095950;28;20358;-53
2022/06/09 12:33:29;;;;;;;;;;;14.70;82.50;;;;;;5096323;28;19908;-56
2022/06/09 12:36:02;;;;;;;;;;;14.70;82.90;;;;;;5053463;28;19919;-49
2022/06/09 12:38:32;;;;;;;;;;;14.70;82.80;;;;;;5089138;28;19908;-56
2022/06/09 12:41:02;;;;;;;;;;;14.70;82.70;;;;;;5095475;28;20015;-57
2022/06/09 12:43:31;;;;;;;;;;;14.70;82.90;;;;;;5095835;28;19908;-53
2022/06/09 12:46:04;;;;;;;;;;;14.70;82.80;;;;;;5094378;28;19908;-59
2022/06/09 12:48:33;;;;;;;;;;;14.70;82.50;;;;;;5095679;28;19908;-59
2022/06/09 12:51:00;;;;;;;;;;;14.70;82.60;;;;;;5095617;28;19908;-54
2022/06/09 12:53:38;;;;;;;;;;;14.60;82.10;;;;;;5095854;28;19915;-56
2022/06/09 12:56:21;;;;;;;;;;;14.60;82.30;;;;;;5094215;28;19931;-55
2022/06/09 12:58:50;;;;;;;;;;;14.60;82.20;;;;;;5097329;28;19912;-57
2022/06/09 13:01:19;;;;;;;;;;;14.60;82.80;;;;;;5115822;28;19912;-61
2022/06/09 13:03:49;;;;;;;;;;;14.60;82.00;;;;;;5115701;28;19953;-51
2022/06/09 13:06:16;;;;;;;;;;;14.60;81.90;;;;;;5115961;28;20360;-58
2022/06/09 13:08:47;;;;;;;;;;;14.50;81.60;;;;;;5114705;28;20003;-53
2022/06/09 13:14:22;;;;;;;;;;;14.50;81.70;;;;;;5115483;28;19915;-56
2022/06/09 13:16:50;;;;;;;;;;;14.50;81.40;;;;;;5115500;28;19908;-50
2022/06/09 13:19:21;;;;;;;;;;;14.50;81.40;;;;;;5115276;28;19915;-57
2022/06/09 13:21:48;;;;;;;;;;;14.50;81.40;;;;;;5115352;28;19922;-58
2022/06/09 13:24:24;;;;;;;;;;;14.50;81.30;;;;;;5115243;28;19912;-57
2022/06/09 13:26:51;;;;;;;;;;;14.40;81.30;;;;;;5115432;28;20003;-43
2022/06/09 13:29:21;;;;;;;;;;;14.40;81.30;;;;;;5114577;28;19914;-55
2022/06/09 13:31:50;;;;;;;;;;;14.40;81.10;;;;;;5114276;28;19923;-50
2022/06/09 13:34:20;;;;;;;;;;;14.40;81.00;;;;;;5115315;28;19943;-46
2022/06/09 13:36:56;;;;;;;;;;;14.40;81.00;;;;;;5114862;28;19964;-54
2022/06/09 13:39:34;;;;;;;;;;;14.40;80.60;;;;;;5115204;28;20007;-54
2022/06/09 13:42:04;;;;;;;;;;;14.40;80.90;;;;;;5113684;28;19923;-49
2022/06/09 13:44:38;;;;;;;;;;;14.40;80.90;;;;;;5115210;28;19908;-45
2022/06/09 13:47:05;;;;;;;;;;;14.30;80.60;;;;;;5115143;28;19912;-40
2022/06/09 13:49:38;;;;;;;;;;;14.30;80.80;;;;;;5115448;28;20445;-40
2022/06/09 13:52:06;;;;;;;;;;;14.30;80.80;;;;;;5114943;27;19960;-40
2022/06/09 13:54:47;;;;;;;;;;;14.30;80.70;;;;;;5114599;28;20261;-40
2022/06/09 13:57:24;;;;;;;;;;;14.30;80.70;;;;;;5114875;28;19995;-44
2022/06/09 13:59:50;;;;;;;;;;;14.30;80.70;;;;;;5114825;28;20007;-58
2022/06/09 14:02:19;;;;;;;;;;;14.30;80.60;;;;;;5114467;28;20002;-49
2022/06/09 14:04:46;;;;;;;;;;;14.30;80.70;;;;;;5114455;28;19912;-55
2022/06/09 14:07:17;;;;;;;;;;;14.20;80.50;;;;;;5114281;28;19960;-49
2022/06/09 14:09:48;;;;;;;;;;;14.30;80.50;;;;;;5114722;28;20270;-48
2022/06/09 14:12:15;;;;;;;;;;;14.30;80.50;;;;;;5113286;28;19919;-47
2022/06/09 14:14:42;;;;;;;;;;;14.20;81.00;;;;;;5114355;28;20350;-49
2022/06/09 14:17:23;;;;;;;;;;;14.20;80.20;;;;;;5114406;28;20412;-44
2022/06/09 14:19:50;;;;;;;;;;;14.20;80.20;;;;;;5114437;28;20377;-46
2022/06/09 14:22:17;;;;;;;;;;;14.20;80.20;;;;;;5114359;28;20007;-50
2022/06/09 14:24:44;;;;;;;;;;;14.20;80.20;;;;;;5114037;28;19912;-55
2022/06/09 14:27:11;;;;;;;;;;;14.20;80.20;;;;;;5114332;28;19953;-53
2022/06/09 14:29:38;;;;;;;;;;;14.20;80.10;;;;;;5114356;28;19939;-56
2022/06/09 14:32:06;;;;;;;;;;;14.20;80.00;;;;;;5114225;28;19985;-51
2022/06/09 14:34:33;;;;;;;;;;;14.20;79.90;;;;;;5114071;28;19907;-48
2022/06/09 14:37:02;;;;;;;;;;;14.20;79.90;;;;;;5114209;28;19907;-51
2022/06/09 14:39:29;;;;;;;;;;;14.20;79.90;;;;;;5113891;28;20350;-56
2022/06/09 14:41:55;;;;;;;;;;;14.20;79.90;;;;;;5112808;28;19963;-53
2022/06/09 14:44:22;;;;;;;;;;;14.20;79.80;;;;;;5114219;28;19943;-57
2022/06/09 14:46:54;;;;;;;;;;;14.10;79.70;;;;;;5113835;28;19912;-51
2022/06/09 14:49:22;;;;;;;;;;;14.20;79.80;;;;;;5113894;28;20366;-59
2022/06/09 14:51:49;;;;;;;;;;;14.10;79.70;;;;;;5114110;28;19953;-58
2022/06/09 14:54:16;;;;;;;;;;;14.10;79.70;;;;;;5114030;28;19908;-57
2022/06/09 14:56:44;;;;;;;;;;;14.10;79.70;;;;;;5113729;28;19908;-58
2022/06/09 14:59:12;;;;;;;;;;;14.10;79.60;;;;;;5113979;27;19908;-57
2022/06/09 15:01:39;;;;;;;;;;;14.10;79.70;;;;;;5113702;28;20022;-62
2022/06/09 15:04:06;;;;;;;;;;;14.10;79.60;;;;;;5113859;28;19911;-61